This is the latest recevied weather packets stored in our database for station/object N5PA. If no packets are shown the sender has not sent any weather packets the latest 10 day(s).
| Time | Temp. | Humidity | Pressure | Rain* | Wind** | Luminosity | Snow |
|---|---|---|---|---|---|---|---|
| 1777856406 | 18.89° C | 62% | 1017.8 hPa | 0 mm | - | 1023 W/m² | - |
| 1777856107 | 18.89° C | 61% | 1017.7 hPa | 0 mm | - | 1021 W/m² | - |
| 1777855806 | 19.44° C | 60% | 1017.7 hPa | 0 mm | - | 1020 W/m² | - |
| 1777855506 | 20° C | 59% | 1017.6 hPa | 0 mm | - | 1020 W/m² | - |
| 1777855206 | 20° C | 57% | 1017.7 hPa | 0 mm | - | 1020 W/m² | - |
| 1777854905 | 20.56° C | 54% | 1017.7 hPa | 0 mm | - | 1020 W/m² | - |
| 1777854605 | 21.11° C | 52% | 1017.7 hPa | 0 mm | - | 1018 W/m² | - |
| 1777854306 | 21.67° C | 50% | 1017.6 hPa | 0 mm | - | 1018 W/m² | - |
| 1777854006 | 22.22° C | 48% | 1017.6 hPa | 0 mm | - | 1018 W/m² | - |
| 1777853705 | 22.78° C | 43% | 1017.5 hPa | 0 mm | - | 1014 W/m² | - |
| 1777853405 | 22.78° C | 43% | 1017.5 hPa | 0 mm | - | 1018 W/m² | - |
| 1777853105 | 23.33° C | 39% | 1017.5 hPa | 0 mm | - | 1013 W/m² | - |
| 1777852807 | 23.89° C | 38% | 1017.5 hPa | 0 mm | - | 1013 W/m² | - |
| 1777852506 | 23.89° C | 38% | 1017.5 hPa | 0 mm | - | 1011 W/m² | - |
| 1777852205 | 24.44° C | 36% | 1017.5 hPa | 0 mm | - | 1011 W/m² | - |
| 1777851905 | 24.44° C | 36% | 1017.5 hPa | 0 mm | - | 1014 W/m² | - |
| 1777851606 | 23.89° C | 39% | 1017.6 hPa | 0 mm | - | 1016 W/m² | - |
| 1777851306 | 23.89° C | 37% | 1017.7 hPa | 0 mm | - | 1018 W/m² | - |
| 1777851006 | 24.44° C | 34% | 1017.7 hPa | 0 mm | - | 1016 W/m² | - |
| 1777850706 | 24.44° C | 34% | 1017.8 hPa | 0 mm | - | 1018 W/m² | - |
| 1777850405 | 24.44° C | 33% | 1017.8 hPa | 0 mm | - | 1016 W/m² | - |
| 1777850104 | 24.44° C | 34% | 1017.8 hPa | 0 mm | - | 1016 W/m² | - |
| 1777849805 | 24.44° C | 33% | 1017.8 hPa | 0 mm | - | 1014 W/m² | - |
| 1777849505 | 23.89° C | 32% | 1017.9 hPa | 0 mm | - | 1018 W/m² | - |
| 1777849204 | 23.89° C | 32% | 1017.9 hPa | 0 mm | - | 1016 W/m² | - |
* Rain latest hour (hover to see other rain measurements)
** Current wind speed in m/s (hover to see current wind gust speed)